Guedel 3 — FGG8104 — position and weather

sailwx.info

Track history (hours):
 
Tides and Currents Weather Stations Pressure Air Temp Water Temp Dewpoint Dewpoint Depression Visibility Wind Speed Wind Dir Waves Ship Positions

Guedel 3

Last reported at 2017-Sep-21 15:54 UTC. Time now 2017-Sep-25 01:04 UTC.
Position N 46°54' W 002°08'.

Length 40 m; draft 2 m.

MMSI: 227051650.

Date/timePositionNaut miles runAvg speedWind from/ knotsBaromVisibWave heightAir tempDewpointWater temp
2017-Sep-21 15:54N 46°54' W 002°08'0 0.0
2017-Sep-21 15:23N 46°54' W 002°08'0 0.0
2017-Sep-21 14:59N 46°54' W 002°08'4 7.1
2017-Sep-21 14:23N 46°51' W 002°13'9 1.5
2017-Sep-21 08:01N 46°44' W 002°21'0 0.0
2017-Sep-21 06:53N 46°44' W 002°21'3 7.6
2017-Sep-21 06:27N 46°46' W 002°18'710.1
2017-Sep-21 05:43N 46°52' W 002°12'2 9.3
2017-Sep-21 05:30N 46°54' W 002°10'1 0.1
2017-Sep-20 14:41N 46°54' W 002°08'13 7.2
2017-Sep-20 12:51N 46°44' W 002°21'0 0.0
2017-Sep-20 12:29N 46°44' W 002°21'0 0.0
2017-Sep-20 12:00N 46°44' W 002°21'0 0.0
2017-Sep-20 11:30N 46°44' W 002°21'0 0.0
2017-Sep-20 11:00N 46°44' W 002°21'0 0.0
2017-Sep-20 10:30N 46°44' W 002°21'0 0.0
2017-Sep-20 09:41N 46°44' W 002°21'0 0.0
2017-Sep-20 09:19N 46°44' W 002°21'0 0.0
2017-Sep-20 08:51N 46°44' W 002°21'0 0.0
2017-Sep-20 08:26N 46°44' W 002°21'0 0.0
2017-Sep-20 08:00N 46°44' W 002°21'0 0.0
2017-Sep-20 07:27N 46°44' W 002°21'1 0.6
2017-Sep-20 06:27N 46°44' W 002°21'510.2
2017-Sep-20 06:00N 46°48' W 002°17'510.3
2017-Sep-20 05:30N 46°52' W 002°12'3 0.2
2017-Sep-19 14:51N 46°54' W 002°08'6 0.7
2017-Sep-19 05:04N 46°49' W 002°15'110.0
2017-Sep-19 05:00N 46°50' W 002°15'5 9.6
2017-Sep-19 04:30N 46°54' W 002°10'1 0.1
2017-Sep-18 15:22N 46°54' W 002°08'0 0.0
2017-Sep-18 14:54N 46°54' W 002°08'7 0.1
2017-Sep-16 11:20N 46°48' W 002°16'3 9.6
2017-Sep-16 11:00N 46°51' W 002°13'4 8.1
2017-Sep-16 10:30N 46°54' W 002°09'0 0.4
2017-Sep-16 10:00N 46°54' W 002°08'0 0.0
2017-Sep-16 09:17N 46°54' W 002°08'0 0.0
2017-Sep-16 08:48N 46°54' W 002°08'0 0.0
2017-Sep-16 08:28N 46°54' W 002°08'0 0.0
2017-Sep-16 08:00N 46°54' W 002°08'0 0.0
2017-Sep-16 07:30N 46°54' W 002°08'0 0.0
2017-Sep-16 07:00N 46°54' W 002°08'0 0.0
2017-Sep-16 06:30N 46°54' W 002°08'0 0.0
2017-Sep-16 06:00N 46°54' W 002°08'0 0.0
2017-Sep-16 05:30N 46°54' W 002°08'0 0.0
2017-Sep-16 05:00N 46°54' W 002°08'0 0.0
2017-Sep-16 04:30N 46°54' W 002°08'0 0.0
2017-Sep-16 04:00N 46°54' W 002°08'0 0.0
2017-Sep-16 03:30N 46°54' W 002°08'0 0.0
2017-Sep-16 03:00N 46°54' W 002°08'0 0.0
2017-Sep-16 02:30N 46°54' W 002°08'0 0.0
2017-Sep-16 02:00N 46°54' W 002°08'0 0.0
2017-Sep-16 01:30N 46°54' W 002°08'0 0.0
2017-Sep-16 01:00N 46°54' W 002°08'0 0.0
2017-Sep-16 00:30N 46°54' W 002°08'0 0.0
2017-Sep-16 00:00N 46°54' W 002°08'0 0.0
2017-Sep-15 23:30N 46°54' W 002°08'0 0.0
2017-Sep-15 23:00N 46°54' W 002°08'0 0.0
2017-Sep-15 22:30N 46°54' W 002°08'0 0.0
2017-Sep-15 22:01N 46°54' W 002°08'0 0.0
2017-Sep-15 21:30N 46°54' W 002°08'0 0.0
2017-Sep-15 21:00N 46°54' W 002°08'0 0.0
2017-Sep-15 20:30N 46°54' W 002°08'0 0.0
2017-Sep-15 20:00N 46°54' W 002°08'0 0.0
2017-Sep-15 19:30N 46°54' W 002°08'0 0.0
2017-Sep-15 19:01N 46°54' W 002°08'0 0.0
2017-Sep-15 18:30N 46°54' W 002°08'0 0.0
2017-Sep-15 18:00N 46°54' W 002°08'0 0.0
2017-Sep-15 17:30N 46°54' W 002°08'0 0.0
2017-Sep-15 17:00N 46°54' W 002°08'0 0.0
2017-Sep-15 16:30N 46°54' W 002°08'0 0.0
2017-Sep-15 16:00N 46°54' W 002°08'0 0.0
2017-Sep-15 15:30N 46°54' W 002°08'0 0.0
2017-Sep-15 14:45N 46°54' W 002°08'1 2.7
2017-Sep-15 14:30N 46°54' W 002°09'6 1.2
2017-Sep-15 09:20N 46°49' W 002°15'3 9.6
2017-Sep-15 08:59N 46°52' W 002°13'3 7.1
2017-Sep-15 08:30N 46°54' W 002°08'0 0.0
2017-Sep-15 08:00N 46°54' W 002°08'0 0.0
2017-Sep-15 07:20N 46°54' W 002°08'0 0.0
2017-Sep-15 06:57N 46°54' W 002°08'0 0.0
2017-Sep-15 06:30N 46°54' W 002°08'0 0.0
2017-Sep-15 05:52N 46°54' W 002°08'0 0.0
2017-Sep-15 05:27N 46°54' W 002°08'0 0.0
2017-Sep-15 05:00N 46°54' W 002°08'0 0.0
2017-Sep-15 04:30N 46°54' W 002°08'0 0.0
2017-Sep-15 04:00N 46°54' W 002°08'0 0.0
2017-Sep-15 03:30N 46°54' W 002°08'0 0.0
2017-Sep-15 03:00N 46°54' W 002°08'0 0.0
2017-Sep-15 02:30N 46°54' W 002°08'0 0.0
2017-Sep-15 02:00N 46°54' W 002°08'0 0.0
2017-Sep-15 01:31N 46°54' W 002°08'0 0.0
2017-Sep-15 01:00N 46°54' W 002°08'0 0.0
2017-Sep-15 00:30N 46°54' W 002°08'0 0.0
2017-Sep-15 00:00N 46°54' W 002°08'0 0.0
2017-Sep-14 23:30N 46°54' W 002°08'0 0.0
2017-Sep-14 23:00N 46°54' W 002°08'0 0.0
2017-Sep-14 22:30N 46°54' W 002°08'0 0.0
2017-Sep-14 22:00N 46°54' W 002°08'0 0.0
2017-Sep-14 21:30N 46°54' W 002°08'0 0.0
2017-Sep-14 21:00N 46°54' W 002°08'0 0.0
2017-Sep-14 20:30N 46°54' W 002°08'5 0.4
2017-Sep-14 07:57N 46°51' W 002°14'4 8.7
2017-Sep-14 07:30N 46°54' W 002°10'1 2.7
2017-Sep-14 07:00N 46°54' W 002°08'0 0.0
2017-Sep-14 04:53N 46°54' W 002°08'0 0.0
2017-Sep-14 04:31N 46°54' W 002°08'0 0.0
2017-Sep-14 04:00N 46°54' W 002°08'0 0.0
2017-Sep-14 03:30N 46°54' W 002°08'0 0.0
2017-Sep-14 03:00N 46°54' W 002°08'0 0.0
2017-Sep-14 02:29N 46°54' W 002°08'0 0.0
2017-Sep-14 02:00N 46°54' W 002°08'0 0.0
2017-Sep-14 01:30N 46°54' W 002°08'0 0.0
2017-Sep-14 01:00N 46°54' W 002°08'0 0.0
2017-Sep-14 00:30N 46°54' W 002°08'0 0.0
2017-Sep-14 00:00N 46°54' W 002°08'0 0.0
2017-Sep-13 23:31N 46°54' W 002°08'0 0.0
2017-Sep-13 23:00N 46°54' W 002°08'0 0.0
2017-Sep-13 22:30N 46°54' W 002°08'0 0.0
2017-Sep-13 22:00N 46°54' W 002°08'0 0.0
2017-Sep-13 21:30N 46°54' W 002°08'0 0.0
2017-Sep-13 21:00N 46°54' W 002°08'0 0.0
2017-Sep-13 20:30N 46°54' W 002°08'0 0.0
2017-Sep-13 20:00N 46°54' W 002°08'0 0.0
2017-Sep-13 19:30N 46°54' W 002°08'0 0.0
2017-Sep-13 19:00N 46°54' W 002°08'0 0.0
2017-Sep-13 18:30N 46°54' W 002°08'0 0.0
2017-Sep-13 18:00N 46°54' W 002°08'0 0.0
2017-Sep-13 17:30N 46°54' W 002°08'0 0.0
2017-Sep-13 17:00N 46°54' W 002°08'0 0.0
2017-Sep-13 16:28N 46°54' W 002°08'0 0.0
2017-Sep-13 15:59N 46°54' W 002°08'0 0.0
2017-Sep-13 15:31N 46°54' W 002°08'0 0.0
2017-Sep-13 15:01N 46°54' W 002°08'0 0.0
2017-Sep-13 14:30N 46°54' W 002°08'0 0.0
2017-Sep-13 14:00N 46°54' W 002°08'0 0.0
2017-Sep-13 13:29N 46°54' W 002°08'0 0.0
2017-Sep-13 13:00N 46°54' W 002°08'0 0.0
2017-Sep-13 12:05N 46°54' W 002°08'0 0.1
2017-Sep-13 12:00N 46°54' W 002°08'3 5.3
2017-Sep-13 11:28N 46°53' W 002°12'7 1.5
2017-Sep-13 07:06N 46°47' W 002°17'2 7.7
2017-Sep-13 06:53N 46°48' W 002°17'4 8.6
2017-Sep-13 06:28N 46°51' W 002°13'4 7.8
2017-Sep-13 05:58N 46°54' W 002°09'0 0.5
2017-Sep-13 05:09N 46°54' W 002°08'0 0.0
2017-Sep-13 04:59N 46°54' W 002°08'0 0.0
2017-Sep-13 04:20N 46°54' W 002°08'0 0.0
2017-Sep-13 04:00N 46°54' W 002°08'0 0.0
2017-Sep-13 03:23N 46°54' W 002°08'0 0.0
2017-Sep-13 03:00N 46°54' W 002°08'0 0.0
2017-Sep-13 02:30N 46°54' W 002°08'0 0.0
2017-Sep-13 02:00N 46°54' W 002°08'0 0.0
2017-Sep-13 01:30N 46°54' W 002°08'0 0.0
2017-Sep-13 01:00N 46°54' W 002°08'0 0.0
2017-Sep-13 00:30N 46°54' W 002°08'0 0.0
2017-Sep-13 00:00N 46°54' W 002°08'0 0.0
2017-Sep-12 23:30N 46°54' W 002°08'0 0.0
2017-Sep-12 23:00N 46°54' W 002°08'0 0.0
2017-Sep-12 22:30N 46°54' W 002°08'0 0.0
2017-Sep-12 22:00N 46°54' W 002°08'0 0.0
2017-Sep-12 21:30N 46°54' W 002°08'0 0.0
2017-Sep-12 21:00N 46°54' W 002°08'0 0.0
2017-Sep-12 20:30N 46°54' W 002°08'0 0.0
2017-Sep-12 20:00N 46°54' W 002°08'0 0.0
2017-Sep-12 19:30N 46°54' W 002°08'0 0.0
2017-Sep-12 19:00N 46°54' W 002°08'0 0.0
2017-Sep-12 18:31N 46°54' W 002°08'0 0.0
2017-Sep-12 18:00N 46°54' W 002°08'0 0.0
2017-Sep-12 17:31N 46°54' W 002°08'0 0.0
2017-Sep-12 15:30N 46°54' W 002°08'0 0.0
2017-Sep-12 14:30N 46°54' W 002°08'0 0.0
2017-Sep-12 12:48N 46°54' W 002°08'4 0.5
2017-Sep-12 05:39N 46°51' W 002°13'2 9.4
2017-Sep-12 05:29N 46°53' W 002°12'3 5.3
2017-Sep-12 05:00N 46°54' W 002°08'0 0.0
2017-Sep-12 02:38N 46°54' W 002°08'0 0.0
2017-Sep-12 02:30N 46°54' W 002°08'0 0.0
2017-Sep-12 02:00N 46°54' W 002°08'0 0.0
2017-Sep-12 01:30N 46°54' W 002°08'0 0.0
2017-Sep-12 01:00N 46°54' W 002°08'0 0.0
2017-Sep-12 00:30N 46°54' W 002°08'0 0.0
2017-Sep-12 00:01N 46°54' W 002°08'0 0.0
2017-Sep-11 23:31N 46°54' W 002°08'0 0.0
2017-Sep-11 23:00N 46°54' W 002°08'0 0.0
2017-Sep-11 22:30N 46°54' W 002°08'0 0.0
2017-Sep-11 21:59N 46°54' W 002°08'0 0.0
2017-Sep-11 21:28N 46°54' W 002°08'0 0.0
2017-Sep-11 21:00N 46°54' W 002°08'0 0.0
2017-Sep-11 20:30N 46°54' W 002°08'0 0.0
2017-Sep-11 20:00N 46°54' W 002°08'0 0.0
2017-Sep-11 19:30N 46°54' W 002°08'0 0.0
2017-Sep-11 19:00N 46°54' W 002°08'0 0.0
2017-Sep-11 17:57N 46°54' W 002°08'2 5.4
2017-Sep-11 17:30N 46°53' W 002°12'  
Track history (hours):
 
Tides and Currents Weather Stations Pressure Air Temp Water Temp Dewpoint Dewpoint Depression Visibility Wind Speed Wind Dir Waves Ship Positions

Guedel 3

Last reported at 2017-Sep-21 15:54 UTC. Time now 2017-Sep-25 01:04 UTC.
Position N 46°54' W 002°08'.

Length 40 m; draft 2 m.

MMSI: 227051650.

Date/timePositionNaut miles runAvg speedWind from/ knotsBaromVisibWave heightAir tempDewpointWater temp
2017-Sep-21 15:54N 46°54' W 002°08'0 0.0
2017-Sep-21 15:23N 46°54' W 002°08'0 0.0
2017-Sep-21 14:59N 46°54' W 002°08'4 7.1
2017-Sep-21 14:23N 46°51' W 002°13'9 1.5
2017-Sep-21 08:01N 46°44' W 002°21'0 0.0
2017-Sep-21 06:53N 46°44' W 002°21'3 7.6
2017-Sep-21 06:27N 46°46' W 002°18'710.1
2017-Sep-21 05:43N 46°52' W 002°12'2 9.3
2017-Sep-21 05:30N 46°54' W 002°10'1 0.1
2017-Sep-20 14:41N 46°54' W 002°08'13 7.2
2017-Sep-20 12:51N 46°44' W 002°21'0 0.0
2017-Sep-20 12:29N 46°44' W 002°21'0 0.0
2017-Sep-20 12:00N 46°44' W 002°21'0 0.0
2017-Sep-20 11:30N 46°44' W 002°21'0 0.0
2017-Sep-20 11:00N 46°44' W 002°21'0 0.0
2017-Sep-20 10:30N 46°44' W 002°21'0 0.0
2017-Sep-20 09:41N 46°44' W 002°21'0 0.0
2017-Sep-20 09:19N 46°44' W 002°21'0 0.0
2017-Sep-20 08:51N 46°44' W 002°21'0 0.0
2017-Sep-20 08:26N 46°44' W 002°21'0 0.0
2017-Sep-20 08:00N 46°44' W 002°21'0 0.0
2017-Sep-20 07:27N 46°44' W 002°21'1 0.6
2017-Sep-20 06:27N 46°44' W 002°21'510.2
2017-Sep-20 06:00N 46°48' W 002°17'510.3
2017-Sep-20 05:30N 46°52' W 002°12'3 0.2
2017-Sep-19 14:51N 46°54' W 002°08'6 0.7
2017-Sep-19 05:04N 46°49' W 002°15'110.0
2017-Sep-19 05:00N 46°50' W 002°15'5 9.6
2017-Sep-19 04:30N 46°54' W 002°10'1 0.1
2017-Sep-18 15:22N 46°54' W 002°08'0 0.0
2017-Sep-18 14:54N 46°54' W 002°08'7 0.1
2017-Sep-16 11:20N 46°48' W 002°16'3 9.6
2017-Sep-16 11:00N 46°51' W 002°13'4 8.1
2017-Sep-16 10:30N 46°54' W 002°09'0 0.4
2017-Sep-16 10:00N 46°54' W 002°08'0 0.0
2017-Sep-16 09:17N 46°54' W 002°08'0 0.0
2017-Sep-16 08:48N 46°54' W 002°08'0 0.0
2017-Sep-16 08:28N 46°54' W 002°08'0 0.0
2017-Sep-16 08:00N 46°54' W 002°08'0 0.0
2017-Sep-16 07:30N 46°54' W 002°08'0 0.0
2017-Sep-16 07:00N 46°54' W 002°08'0 0.0
2017-Sep-16 06:30N 46°54' W 002°08'0 0.0
2017-Sep-16 06:00N 46°54' W 002°08'0 0.0
2017-Sep-16 05:30N 46°54' W 002°08'0 0.0
2017-Sep-16 05:00N 46°54' W 002°08'0 0.0
2017-Sep-16 04:30N 46°54' W 002°08'0 0.0
2017-Sep-16 04:00N 46°54' W 002°08'0 0.0
2017-Sep-16 03:30N 46°54' W 002°08'0 0.0
2017-Sep-16 03:00N 46°54' W 002°08'0 0.0
2017-Sep-16 02:30N 46°54' W 002°08'0 0.0
2017-Sep-16 02:00N 46°54' W 002°08'0 0.0
2017-Sep-16 01:30N 46°54' W 002°08'0 0.0
2017-Sep-16 01:00N 46°54' W 002°08'0 0.0
2017-Sep-16 00:30N 46°54' W 002°08'0 0.0
2017-Sep-16 00:00N 46°54' W 002°08'0 0.0
2017-Sep-15 23:30N 46°54' W 002°08'0 0.0
2017-Sep-15 23:00N 46°54' W 002°08'0 0.0
2017-Sep-15 22:30N 46°54' W 002°08'0 0.0
2017-Sep-15 22:01N 46°54' W 002°08'0 0.0
2017-Sep-15 21:30N 46°54' W 002°08'0 0.0
2017-Sep-15 21:00N 46°54' W 002°08'0 0.0
2017-Sep-15 20:30N 46°54' W 002°08'0 0.0
2017-Sep-15 20:00N 46°54' W 002°08'0 0.0
2017-Sep-15 19:30N 46°54' W 002°08'0 0.0
2017-Sep-15 19:01N 46°54' W 002°08'0 0.0
2017-Sep-15 18:30N 46°54' W 002°08'0 0.0
2017-Sep-15 18:00N 46°54' W 002°08'0 0.0
2017-Sep-15 17:30N 46°54' W 002°08'0 0.0
2017-Sep-15 17:00N 46°54' W 002°08'0 0.0
2017-Sep-15 16:30N 46°54' W 002°08'0 0.0
2017-Sep-15 16:00N 46°54' W 002°08'0 0.0
2017-Sep-15 15:30N 46°54' W 002°08'0 0.0
2017-Sep-15 14:45N 46°54' W 002°08'1 2.7
2017-Sep-15 14:30N 46°54' W 002°09'6 1.2
2017-Sep-15 09:20N 46°49' W 002°15'3 9.6
2017-Sep-15 08:59N 46°52' W 002°13'3 7.1
2017-Sep-15 08:30N 46°54' W 002°08'0 0.0
2017-Sep-15 08:00N 46°54' W 002°08'0 0.0
2017-Sep-15 07:20N 46°54' W 002°08'0 0.0
2017-Sep-15 06:57N 46°54' W 002°08'0 0.0
2017-Sep-15 06:30N 46°54' W 002°08'0 0.0
2017-Sep-15 05:52N 46°54' W 002°08'0 0.0
2017-Sep-15 05:27N 46°54' W 002°08'0 0.0
2017-Sep-15 05:00N 46°54' W 002°08'0 0.0
2017-Sep-15 04:30N 46°54' W 002°08'0 0.0
2017-Sep-15 04:00N 46°54' W 002°08'0 0.0
2017-Sep-15 03:30N 46°54' W 002°08'0 0.0
2017-Sep-15 03:00N 46°54' W 002°08'0 0.0
2017-Sep-15 02:30N 46°54' W 002°08'0 0.0
2017-Sep-15 02:00N 46°54' W 002°08'0 0.0
2017-Sep-15 01:31N 46°54' W 002°08'0 0.0
2017-Sep-15 01:00N 46°54' W 002°08'0 0.0
2017-Sep-15 00:30N 46°54' W 002°08'0 0.0
2017-Sep-15 00:00N 46°54' W 002°08'0 0.0
2017-Sep-14 23:30N 46°54' W 002°08'0 0.0
2017-Sep-14 23:00N 46°54' W 002°08'0 0.0
2017-Sep-14 22:30N 46°54' W 002°08'0 0.0
2017-Sep-14 22:00N 46°54' W 002°08'0 0.0
2017-Sep-14 21:30N 46°54' W 002°08'0 0.0
2017-Sep-14 21:00N 46°54' W 002°08'0 0.0
2017-Sep-14 20:30N 46°54' W 002°08'5 0.4
2017-Sep-14 07:57N 46°51' W 002°14'4 8.7
2017-Sep-14 07:30N 46°54' W 002°10'1 2.7
2017-Sep-14 07:00N 46°54' W 002°08'0 0.0
2017-Sep-14 04:53N 46°54' W 002°08'0 0.0
2017-Sep-14 04:31N 46°54' W 002°08'0 0.0
2017-Sep-14 04:00N 46°54' W 002°08'0 0.0
2017-Sep-14 03:30N 46°54' W 002°08'0 0.0
2017-Sep-14 03:00N 46°54' W 002°08'0 0.0
2017-Sep-14 02:29N 46°54' W 002°08'0 0.0
2017-Sep-14 02:00N 46°54' W 002°08'0 0.0
2017-Sep-14 01:30N 46°54' W 002°08'0 0.0
2017-Sep-14 01:00N 46°54' W 002°08'0 0.0
2017-Sep-14 00:30N 46°54' W 002°08'0 0.0
2017-Sep-14 00:00N 46°54' W 002°08'0 0.0
2017-Sep-13 23:31N 46°54' W 002°08'0 0.0
2017-Sep-13 23:00N 46°54' W 002°08'0 0.0
2017-Sep-13 22:30N 46°54' W 002°08'0 0.0
2017-Sep-13 22:00N 46°54' W 002°08'0 0.0
2017-Sep-13 21:30N 46°54' W 002°08'0 0.0
2017-Sep-13 21:00N 46°54' W 002°08'0 0.0
2017-Sep-13 20:30N 46°54' W 002°08'0 0.0
2017-Sep-13 20:00N 46°54' W 002°08'0 0.0
2017-Sep-13 19:30N 46°54' W 002°08'0 0.0
2017-Sep-13 19:00N 46°54' W 002°08'0 0.0
2017-Sep-13 18:30N 46°54' W 002°08'0 0.0
2017-Sep-13 18:00N 46°54' W 002°08'0 0.0
2017-Sep-13 17:30N 46°54' W 002°08'0 0.0
2017-Sep-13 17:00N 46°54' W 002°08'0 0.0
2017-Sep-13 16:28N 46°54' W 002°08'0 0.0
2017-Sep-13 15:59N 46°54' W 002°08'0 0.0
2017-Sep-13 15:31N 46°54' W 002°08'0 0.0
2017-Sep-13 15:01N 46°54' W 002°08'0 0.0
2017-Sep-13 14:30N 46°54' W 002°08'0 0.0
2017-Sep-13 14:00N 46°54' W 002°08'0 0.0
2017-Sep-13 13:29N 46°54' W 002°08'0 0.0
2017-Sep-13 13:00N 46°54' W 002°08'0 0.0
2017-Sep-13 12:05N 46°54' W 002°08'0 0.1
2017-Sep-13 12:00N 46°54' W 002°08'3 5.3
2017-Sep-13 11:28N 46°53' W 002°12'7 1.5
2017-Sep-13 07:06N 46°47' W 002°17'2 7.7
2017-Sep-13 06:53N 46°48' W 002°17'4 8.6
2017-Sep-13 06:28N 46°51' W 002°13'4 7.8
2017-Sep-13 05:58N 46°54' W 002°09'0 0.5
2017-Sep-13 05:09N 46°54' W 002°08'0 0.0
2017-Sep-13 04:59N 46°54' W 002°08'0 0.0
2017-Sep-13 04:20N 46°54' W 002°08'0 0.0
2017-Sep-13 04:00N 46°54' W 002°08'0 0.0
2017-Sep-13 03:23N 46°54' W 002°08'0 0.0
2017-Sep-13 03:00N 46°54' W 002°08'0 0.0
2017-Sep-13 02:30N 46°54' W 002°08'0 0.0
2017-Sep-13 02:00N 46°54' W 002°08'0 0.0
2017-Sep-13 01:30N 46°54' W 002°08'0 0.0
2017-Sep-13 01:00N 46°54' W 002°08'0 0.0
2017-Sep-13 00:30N 46°54' W 002°08'0 0.0
2017-Sep-13 00:00N 46°54' W 002°08'0 0.0
2017-Sep-12 23:30N 46°54' W 002°08'0 0.0
2017-Sep-12 23:00N 46°54' W 002°08'0 0.0
2017-Sep-12 22:30N 46°54' W 002°08'0 0.0
2017-Sep-12 22:00N 46°54' W 002°08'0 0.0
2017-Sep-12 21:30N 46°54' W 002°08'0 0.0
2017-Sep-12 21:00N 46°54' W 002°08'0 0.0
2017-Sep-12 20:30N 46°54' W 002°08'0 0.0
2017-Sep-12 20:00N 46°54' W 002°08'0 0.0
2017-Sep-12 19:30N 46°54' W 002°08'0 0.0
2017-Sep-12 19:00N 46°54' W 002°08'0 0.0
2017-Sep-12 18:31N 46°54' W 002°08'0 0.0
2017-Sep-12 18:00N 46°54' W 002°08'0 0.0
2017-Sep-12 17:31N 46°54' W 002°08'0 0.0
2017-Sep-12 15:30N 46°54' W 002°08'0 0.0
2017-Sep-12 14:30N 46°54' W 002°08'0 0.0
2017-Sep-12 12:48N 46°54' W 002°08'4 0.5
2017-Sep-12 05:39N 46°51' W 002°13'2 9.4
2017-Sep-12 05:29N 46°53' W 002°12'3 5.3
2017-Sep-12 05:00N 46°54' W 002°08'0 0.0
2017-Sep-12 02:38N 46°54' W 002°08'0 0.0
2017-Sep-12 02:30N 46°54' W 002°08'0 0.0
2017-Sep-12 02:00N 46°54' W 002°08'0 0.0
2017-Sep-12 01:30N 46°54' W 002°08'0 0.0
2017-Sep-12 01:00N 46°54' W 002°08'0 0.0
2017-Sep-12 00:30N 46°54' W 002°08'0 0.0
2017-Sep-12 00:01N 46°54' W 002°08'0 0.0
2017-Sep-11 23:31N 46°54' W 002°08'0 0.0
2017-Sep-11 23:00N 46°54' W 002°08'0 0.0
2017-Sep-11 22:30N 46°54' W 002°08'0 0.0
2017-Sep-11 21:59N 46°54' W 002°08'0 0.0
2017-Sep-11 21:28N 46°54' W 002°08'0 0.0
2017-Sep-11 21:00N 46°54' W 002°08'0 0.0
2017-Sep-11 20:30N 46°54' W 002°08'0 0.0
2017-Sep-11 20:00N 46°54' W 002°08'0 0.0
2017-Sep-11 19:30N 46°54' W 002°08'0 0.0
2017-Sep-11 19:00N 46°54' W 002°08'0 0.0
2017-Sep-11 17:57N 46°54' W 002°08'2 5.4
2017-Sep-11 17:30N 46°53' W 002°12'  

Dump ship's entire track history